sensor_id;sensor_type;location;lat;lon;timestamp;temperature;humidity
4693;DHT22;11710;48.024;16.296;2022-12-05T06:53:43;3.30;99.90
4693;DHT22;11710;48.024;16.296;2022-12-05T06:56:12;3.40;99.90
4693;DHT22;11710;48.024;16.296;2022-12-05T06:58:39;3.50;99.90
4693;DHT22;11710;48.024;16.296;2022-12-05T07:01:10;3.60;99.90
4693;DHT22;11710;48.024;16.296;2022-12-05T07:03:55;3.60;99.90
4693;DHT22;11710;48.024;16.296;2022-12-05T07:06:22;3.70;99.90
4693;DHT22;11710;48.024;16.296;2022-12-05T07:08:51;3.80;99.90
4693;DHT22;11710;48.024;16.296;2022-12-05T07:11:18;3.80;99.90
4693;DHT22;11710;48.024;16.296;2022-12-05T07:13:45;3.90;99.90
4693;DHT22;11710;48.024;16.296;2022-12-05T07:16:13;3.90;99.90
4693;DHT22;11710;48.024;16.296;2022-12-05T07:18:40;4.00;99.90
4693;DHT22;11710;48.024;16.296;2022-12-05T07:21:11;4.10;99.90
4693;DHT22;11710;48.024;16.296;2022-12-05T07:23:39;4.10;99.90
4693;DHT22;11710;48.024;16.296;2022-12-05T07:26:10;4.20;99.90
4693;DHT22;11710;48.024;16.296;2022-12-05T07:28:37;4.20;99.90
4693;DHT22;11710;48.024;16.296;2022-12-05T07:31:06;4.30;99.90
4693;DHT22;11710;48.024;16.296;2022-12-05T07:33:34;4.30;99.90
4693;DHT22;11710;48.024;16.296;2022-12-05T07:36:03;4.30;99.90
4693;DHT22;11710;48.024;16.296;2022-12-05T07:38:30;4.40;99.90
4693;DHT22;11710;48.024;16.296;2022-12-05T07:40:57;4.40;99.90
4693;DHT22;11710;48.024;16.296;2022-12-05T07:43:26;4.50;99.90
4693;DHT22;11710;48.024;16.296;2022-12-05T07:45:53;4.60;99.90
4693;DHT22;11710;48.024;16.296;2022-12-05T07:48:20;4.70;99.90
4693;DHT22;11710;48.024;16.296;2022-12-05T07:50:47;4.70;99.90
4693;DHT22;11710;48.024;16.296;2022-12-05T07:53:14;4.80;99.90
4693;DHT22;11710;48.024;16.296;2022-12-05T07:55:42;4.80;99.90
4693;DHT22;11710;48.024;16.296;2022-12-05T07:58:09;4.90;99.90
4693;DHT22;11710;48.024;16.296;2022-12-05T08:00:37;4.90;99.90
4693;DHT22;11710;48.024;16.296;2022-12-05T08:03:04;4.90;99.90
4693;DHT22;11710;48.024;16.296;2022-12-05T08:05:33;4.90;99.90
4693;DHT22;11710;48.024;16.296;2022-12-05T08:08:00;5.00;99.90
4693;DHT22;11710;48.024;16.296;2022-12-05T08:10:27;5.00;99.90
4693;DHT22;11710;48.024;16.296;2022-12-05T08:12:54;5.00;99.90
4693;DHT22;11710;48.024;16.296;2022-12-05T08:15:21;5.10;99.90
4693;DHT22;11710;48.024;16.296;2022-12-05T08:17:50;5.10;99.90
4693;DHT22;11710;48.024;16.296;2022-12-05T08:20:17;5.20;99.90
4693;DHT22;11710;48.024;16.296;2022-12-05T08:22:44;5.20;99.90
4693;DHT22;11710;48.024;16.296;2022-12-05T08:25:11;5.20;99.90
4693;DHT22;11710;48.024;16.296;2022-12-05T08:27:38;5.30;99.90
4693;DHT22;11710;48.024;16.296;2022-12-05T08:30:06;5.40;99.90
4693;DHT22;11710;48.024;16.296;2022-12-05T08:32:34;5.40;99.90
4693;DHT22;11710;48.024;16.296;2022-12-05T08:35:03;5.50;99.90
4693;DHT22;11710;48.024;16.296;2022-12-05T08:37:30;5.60;99.90
4693;DHT22;11710;48.024;16.296;2022-12-05T08:39:57;5.60;99.90
4693;DHT22;11710;48.024;16.296;2022-12-05T08:42:24;5.70;99.90
4693;DHT22;11710;48.024;16.296;2022-12-05T08:44:51;5.70;99.90
4693;DHT22;11710;48.024;16.296;2022-12-05T08:47:18;5.70;99.90
4693;DHT22;11710;48.024;16.296;2022-12-05T08:49:46;5.80;99.90
4693;DHT22;11710;48.024;16.296;2022-12-05T08:52:14;5.80;99.90
4693;DHT22;11710;48.024;16.296;2022-12-05T08:54:41;5.90;99.90
4693;DHT22;11710;48.024;16.296;2022-12-05T08:57:08;5.90;99.90
4693;DHT22;11710;48.024;16.296;2022-12-05T08:59:35;6.00;99.90
4693;DHT22;11710;48.024;16.296;2022-12-05T09:02:03;6.00;99.90
4693;DHT22;11710;48.024;16.296;2022-12-05T09:04:30;6.00;99.90
4693;DHT22;11710;48.024;16.296;2022-12-05T09:06:57;6.00;99.90
4693;DHT22;11710;48.024;16.296;2022-12-05T09:09:28;6.00;99.90
4693;DHT22;11710;48.024;16.296;2022-12-05T09:11:57;6.10;99.90
4693;DHT22;11710;48.024;16.296;2022-12-05T09:14:25;6.10;99.90
4693;DHT22;11710;48.024;16.296;2022-12-05T09:16:58;6.20;99.90
4693;DHT22;11710;48.024;16.296;2022-12-05T09:19:26;6.20;99.90
4693;DHT22;11710;48.024;16.296;2022-12-05T09:21:54;6.30;99.90
4693;DHT22;11710;48.024;16.296;2022-12-05T09:24:22;6.20;99.90
4693;DHT22;11710;48.024;16.296;2022-12-05T09:26:50;6.30;99.90
4693;DHT22;11710;48.024;16.296;2022-12-05T09:29:17;6.30;99.90
4693;DHT22;11710;48.024;16.296;2022-12-05T09:31:46;6.40;99.90
4693;DHT22;11710;48.024;16.296;2022-12-05T09:34:16;6.50;99.90
4693;DHT22;11710;48.024;16.296;2022-12-05T09:39:34;6.60;99.90
4693;DHT22;11710;48.024;16.296;2022-12-05T09:42:12;6.70;99.90
4693;DHT22;11710;48.024;16.296;2022-12-05T09:45:00;6.70;99.90
4693;DHT22;11710;48.024;16.296;2022-12-05T09:47:38;6.80;99.90
4693;DHT22;11710;48.024;16.296;2022-12-05T09:50:15;6.90;99.90
4693;DHT22;11710;48.024;16.296;2022-12-05T09:52:57;6.90;99.90
4693;DHT22;11710;48.024;16.296;2022-12-05T09:55:30;6.90;99.90
4693;DHT22;11710;48.024;16.296;2022-12-05T09:58:04;6.90;99.90
4693;DHT22;11710;48.024;16.296;2022-12-05T10:00:38;7.00;99.90
4693;DHT22;11710;48.024;16.296;2022-12-05T10:03:11;7.00;99.90
4693;DHT22;11710;48.024;16.296;2022-12-05T10:05:52;7.00;99.90
4693;DHT22;11710;48.024;16.296;2022-12-05T10:08:28;7.00;99.90
4693;DHT22;11710;48.024;16.296;2022-12-05T10:11:00;7.00;99.90
4693;DHT22;11710;48.024;16.296;2022-12-05T10:13:44;7.00;99.90
4693;DHT22;11710;48.024;16.296;2022-12-05T10:16:28;6.90;99.90
4693;DHT22;11710;48.024;16.296;2022-12-05T10:19:08;7.00;99.90
4693;DHT22;11710;48.024;16.296;2022-12-05T10:21:43;6.90;99.90
4693;DHT22;11710;48.024;16.296;2022-12-05T10:24:32;6.90;99.90
4693;DHT22;11710;48.024;16.296;2022-12-05T10:27:07;6.90;99.90
4693;DHT22;11710;48.024;16.296;2022-12-05T10:29:52;6.90;99.90
4693;DHT22;11710;48.024;16.296;2022-12-05T10:32:27;6.90;99.90
4693;DHT22;11710;48.024;16.296;2022-12-05T10:35:09;6.90;99.90
4693;DHT22;11710;48.024;16.296;2022-12-05T10:37:43;6.90;99.90
4693;DHT22;11710;48.024;16.296;2022-12-05T10:40:13;6.90;99.90
4693;DHT22;11710;48.024;16.296;2022-12-05T10:42:41;6.90;99.90
4693;DHT22;11710;48.024;16.296;2022-12-05T10:45:17;6.90;99.90
4693;DHT22;11710;48.024;16.296;2022-12-05T10:47:57;6.90;99.90
4693;DHT22;11710;48.024;16.296;2022-12-05T10:50:29;6.90;99.90
4693;DHT22;11710;48.024;16.296;2022-12-05T10:52:58;6.90;99.90
4693;DHT22;11710;48.024;16.296;2022-12-05T10:55:29;6.80;99.90
4693;DHT22;11710;48.024;16.296;2022-12-05T10:58:11;6.80;99.90
4693;DHT22;11710;48.024;16.296;2022-12-05T11:00:41;6.90;99.90
4693;DHT22;11710;48.024;16.296;2022-12-05T11:03:30;6.80;99.90
4693;DHT22;11710;48.024;16.296;2022-12-05T11:06:00;6.90;99.90
4693;DHT22;11710;48.024;16.296;2022-12-05T11:08:31;6.90;99.90
4693;DHT22;11710;48.024;16.296;2022-12-05T11:11:04;6.90;99.90
4693;DHT22;11710;48.024;16.296;2022-12-05T11:13:33;6.90;99.90
4693;DHT22;11710;48.024;16.296;2022-12-05T11:16:02;6.90;99.90
4693;DHT22;11710;48.024;16.296;2022-12-05T11:18:32;7.00;99.90
4693;DHT22;11710;48.024;16.296;2022-12-05T11:21:17;7.00;99.90
4693;DHT22;11710;48.024;16.296;2022-12-05T11:23:46;7.00;99.90
4693;DHT22;11710;48.024;16.296;2022-12-05T11:26:19;7.10;99.90
4693;DHT22;11710;48.024;16.296;2022-12-05T11:28:59;7.10;99.90
4693;DHT22;11710;48.024;16.296;2022-12-05T11:31:29;7.10;99.90
4693;DHT22;11710;48.024;16.296;2022-12-05T11:34:09;7.10;99.90
4693;DHT22;11710;48.024;16.296;2022-12-05T11:36:41;7.10;99.90
4693;DHT22;11710;48.024;16.296;2022-12-05T11:39:12;7.10;99.90
4693;DHT22;11710;48.024;16.296;2022-12-05T11:44:50;7.10;99.90
4693;DHT22;11710;48.024;16.296;2022-12-05T11:47:39;7.10;99.90
4693;DHT22;11710;48.024;16.296;2022-12-05T11:50:19;7.10;99.90
4693;DHT22;11710;48.024;16.296;2022-12-05T11:52:56;7.10;99.90
4693;DHT22;11710;48.024;16.296;2022-12-05T11:55:30;7.00;99.90
4693;DHT22;11710;48.024;16.296;2022-12-05T11:58:32;7.00;99.90
4693;DHT22;11710;48.024;16.296;2022-12-05T12:01:10;6.90;99.90
4693;DHT22;11710;48.024;16.296;2022-12-05T12:04:15;6.90;99.90
4693;DHT22;11710;48.024;16.296;2022-12-05T12:06:58;6.80;99.90
4693;DHT22;11710;48.024;16.296;2022-12-05T12:09:37;6.80;99.90
4693;DHT22;11710;48.024;16.296;2022-12-05T12:12:13;6.70;99.90
4693;DHT22;11710;48.024;16.296;2022-12-05T12:14:47;6.60;99.90
4693;DHT22;11710;48.024;16.296;2022-12-05T12:17:21;6.70;99.90
4693;DHT22;11710;48.024;16.296;2022-12-05T12:20:14;6.70;99.90
4693;DHT22;11710;48.024;16.296;2022-12-05T12:22:55;6.60;99.90
4693;DHT22;11710;48.024;16.296;2022-12-05T12:25:33;6.60;99.90
4693;DHT22;11710;48.024;16.296;2022-12-05T12:28:17;6.60;99.90
4693;DHT22;11710;48.024;16.296;2022-12-05T12:31:02;6.60;99.90
4693;DHT22;11710;48.024;16.296;2022-12-05T12:33:34;6.60;99.90
4693;DHT22;11710;48.024;16.296;2022-12-05T12:36:13;6.60;99.90
4693;DHT22;11710;48.024;16.296;2022-12-05T12:38:59;6.60;99.90
4693;DHT22;11710;48.024;16.296;2022-12-05T12:41:42;6.60;99.90
4693;DHT22;11710;48.024;16.296;2022-12-05T12:47:10;6.50;99.90
4693;DHT22;11710;48.024;16.296;2022-12-05T12:49:50;6.50;99.90
4693;DHT22;11710;48.024;16.296;2022-12-05T12:52:22;6.50;99.90
4693;DHT22;11710;48.024;16.296;2022-12-05T12:55:11;6.60;99.90
4693;DHT22;11710;48.024;16.296;2022-12-05T12:57:54;6.60;99.90
4693;DHT22;11710;48.024;16.296;2022-12-05T13:00:34;6.70;99.90
4693;DHT22;11710;48.024;16.296;2022-12-05T13:03:11;6.70;99.90
4693;DHT22;11710;48.024;16.296;2022-12-05T13:05:44;6.80;99.90
4693;DHT22;11710;48.024;16.296;2022-12-05T13:08:20;6.80;99.90
4693;DHT22;11710;48.024;16.296;2022-12-05T13:10:50;6.80;99.90
4693;DHT22;11710;48.024;16.296;2022-12-05T13:13:22;6.80;99.90
4693;DHT22;11710;48.024;16.296;2022-12-05T13:15:53;6.80;99.90
4693;DHT22;11710;48.024;16.296;2022-12-05T13:18:24;6.80;99.90
4693;DHT22;11710;48.024;16.296;2022-12-05T13:20:53;6.80;99.90
4693;DHT22;11710;48.024;16.296;2022-12-05T13:23:23;6.80;99.90
4693;DHT22;11710;48.024;16.296;2022-12-05T13:25:53;6.60;99.90
4693;DHT22;11710;48.024;16.296;2022-12-05T13:28:29;6.50;99.90
4693;DHT22;11710;48.024;16.296;2022-12-05T13:30:57;6.40;99.90
4693;DHT22;11710;48.024;16.296;2022-12-05T13:33:29;6.30;99.90
4693;DHT22;11710;48.024;16.296;2022-12-05T13:36:04;6.30;99.90
4693;DHT22;11710;48.024;16.296;2022-12-05T13:38:57;6.30;99.90
4693;DHT22;11710;48.024;16.296;2022-12-05T13:41:44;6.30;99.90
4693;DHT22;11710;48.024;16.296;2022-12-05T13:44:36;6.30;99.90
4693;DHT22;11710;48.024;16.296;2022-12-05T13:47:06;6.40;99.90
4693;DHT22;11710;48.024;16.296;2022-12-05T13:49:40;6.40;99.90
4693;DHT22;11710;48.024;16.296;2022-12-05T13:52:23;6.40;99.90
4693;DHT22;11710;48.024;16.296;2022-12-05T13:54:57;6.40;99.90
4693;DHT22;11710;48.024;16.296;2022-12-05T13:57:45;6.40;99.90
4693;DHT22;11710;48.024;16.296;2022-12-05T14:00:28;6.40;99.90
4693;DHT22;11710;48.024;16.296;2022-12-05T14:02:58;6.30;99.90
4693;DHT22;11710;48.024;16.296;2022-12-05T14:05:45;6.40;99.90
4693;DHT22;11710;48.024;16.296;2022-12-05T14:08:50;6.40;99.90
4693;DHT22;11710;48.024;16.296;2022-12-05T14:11:19;6.40;99.90
4693;DHT22;11710;48.024;16.296;2022-12-05T14:13:46;6.30;99.90
4693;DHT22;11710;48.024;16.296;2022-12-05T14:19:21;6.30;99.90
4693;DHT22;11710;48.024;16.296;2022-12-05T14:21:58;6.10;99.90
4693;DHT22;11710;48.024;16.296;2022-12-05T14:24:32;6.10;99.90
4693;DHT22;11710;48.024;16.296;2022-12-05T14:27:06;6.20;99.90
4693;DHT22;11710;48.024;16.296;2022-12-05T14:29:38;6.10;99.90
4693;DHT22;11710;48.024;16.296;2022-12-05T14:32:21;6.10;99.90
4693;DHT22;11710;48.024;16.296;2022-12-05T14:34:56;6.10;99.90
4693;DHT22;11710;48.024;16.296;2022-12-05T14:37:27;6.10;99.90
4693;DHT22;11710;48.024;16.296;2022-12-05T14:39:57;6.10;99.90
4693;DHT22;11710;48.024;16.296;2022-12-05T14:42:34;6.10;99.90
4693;DHT22;11710;48.024;16.296;2022-12-05T14:45:22;6.10;99.90
4693;DHT22;11710;48.024;16.296;2022-12-05T14:47:52;6.10;99.90
4693;DHT22;11710;48.024;16.296;2022-12-05T14:50:36;6.10;99.90
4693;DHT22;11710;48.024;16.296;2022-12-05T14:53:21;6.20;99.90
4693;DHT22;11710;48.024;16.296;2022-12-05T14:55:51;6.20;99.90
4693;DHT22;11710;48.024;16.296;2022-12-05T14:58:28;6.20;99.90
4693;DHT22;11710;48.024;16.296;2022-12-05T15:00:59;6.20;99.90
4693;DHT22;11710;48.024;16.296;2022-12-05T15:03:30;6.20;99.90
4693;DHT22;11710;48.024;16.296;2022-12-05T15:05:59;6.20;99.90
4693;DHT22;11710;48.024;16.296;2022-12-05T15:08:32;6.20;99.90
4693;DHT22;11710;48.024;16.296;2022-12-05T15:11:01;6.30;99.90
4693;DHT22;11710;48.024;16.296;2022-12-05T15:13:32;6.30;99.90
4693;DHT22;11710;48.024;16.296;2022-12-05T15:16:01;6.30;99.90
4693;DHT22;11710;48.024;16.296;2022-12-05T15:18:36;6.30;99.90
4693;DHT22;11710;48.024;16.296;2022-12-05T15:21:08;6.30;99.90
4693;DHT22;11710;48.024;16.296;2022-12-05T15:23:38;6.30;99.90
4693;DHT22;11710;48.024;16.296;2022-12-05T15:26:17;6.20;99.90
4693;DHT22;11710;48.024;16.296;2022-12-05T15:29:03;6.30;99.90
4693;DHT22;11710;48.024;16.296;2022-12-05T15:31:33;6.30;99.90
4693;DHT22;11710;48.024;16.296;2022-12-05T15:34:04;6.20;99.90
4693;DHT22;11710;48.024;16.296;2022-12-05T15:36:35;6.20;99.90
4693;DHT22;11710;48.024;16.296;2022-12-05T15:39:15;6.20;99.90
4693;DHT22;11710;48.024;16.296;2022-12-05T15:41:44;6.10;99.90
4693;DHT22;11710;48.024;16.296;2022-12-05T15:44:13;6.00;99.90
4693;DHT22;11710;48.024;16.296;2022-12-05T15:46:41;6.00;99.90
4693;DHT22;11710;48.024;16.296;2022-12-05T15:49:16;6.00;99.90
4693;DHT22;11710;48.024;16.296;2022-12-05T15:51:47;6.00;99.90
4693;DHT22;11710;48.024;16.296;2022-12-05T15:54:19;5.90;99.90
4693;DHT22;11710;48.024;16.296;2022-12-05T15:56:52;5.90;99.90
4693;DHT22;11710;48.024;16.296;2022-12-05T15:59:26;5.90;99.90
4693;DHT22;11710;48.024;16.296;2022-12-05T16:02:03;5.80;99.90
4693;DHT22;11710;48.024;16.296;2022-12-05T16:04:37;5.80;99.90
4693;DHT22;11710;48.024;16.296;2022-12-05T16:07:10;5.80;99.90
4693;DHT22;11710;48.024;16.296;2022-12-05T16:09:41;5.80;99.90
4693;DHT22;11710;48.024;16.296;2022-12-05T16:12:23;5.80;99.90
4693;DHT22;11710;48.024;16.296;2022-12-05T16:14:56;5.80;99.90
4693;DHT22;11710;48.024;16.296;2022-12-05T16:17:28;5.60;99.90
4693;DHT22;11710;48.024;16.296;2022-12-05T16:20:20;5.70;99.90
4693;DHT22;11710;48.024;16.296;2022-12-05T16:22:52;5.70;99.90
4693;DHT22;11710;48.024;16.296;2022-12-05T16:25:23;5.70;99.90
4693;DHT22;11710;48.024;16.296;2022-12-05T16:28:00;5.70;99.90
4693;DHT22;11710;48.024;16.296;2022-12-05T16:30:30;5.70;99.90
4693;DHT22;11710;48.024;16.296;2022-12-05T16:33:00;5.80;99.90
4693;DHT22;11710;48.024;16.296;2022-12-05T16:35:32;5.80;99.90
4693;DHT22;11710;48.024;16.296;2022-12-05T16:38:12;5.80;99.90
4693;DHT22;11710;48.024;16.296;2022-12-05T16:40:55;5.80;99.90
4693;DHT22;11710;48.024;16.296;2022-12-05T16:43:26;5.90;99.90
4693;DHT22;11710;48.024;16.296;2022-12-05T16:46:06;5.90;99.90
4693;DHT22;11710;48.024;16.296;2022-12-05T16:52:12;5.90;99.90
4693;DHT22;11710;48.024;16.296;2022-12-05T16:54:40;5.90;99.90
4693;DHT22;11710;48.024;16.296;2022-12-05T16:57:10;5.90;99.90
4693;DHT22;11710;48.024;16.296;2022-12-05T16:59:38;5.80;99.90
4693;DHT22;11710;48.024;16.296;2022-12-05T17:02:13;5.70;99.90
4693;DHT22;11710;48.024;16.296;2022-12-05T17:04:43;5.70;99.90
4693;DHT22;11710;48.024;16.296;2022-12-05T17:07:13;5.70;99.90
4693;DHT22;11710;48.024;16.296;2022-12-05T17:09:40;5.80;99.90
4693;DHT22;11710;48.024;16.296;2022-12-05T17:12:14;5.80;99.90
4693;DHT22;11710;48.024;16.296;2022-12-05T17:14:45;5.70;99.90
4693;DHT22;11710;48.024;16.296;2022-12-05T17:17:16;5.70;99.90
4693;DHT22;11710;48.024;16.296;2022-12-05T17:19:45;5.70;99.90
4693;DHT22;11710;48.024;16.296;2022-12-05T17:22:14;5.70;99.90
4693;DHT22;11710;48.024;16.296;2022-12-05T17:24:42;5.80;99.90
4693;DHT22;11710;48.024;16.296;2022-12-05T17:27:11;5.80;99.90
4693;DHT22;11710;48.024;16.296;2022-12-05T17:29:41;5.80;99.90
4693;DHT22;11710;48.024;16.296;2022-12-05T17:32:09;5.80;99.90
4693;DHT22;11710;48.024;16.296;2022-12-05T17:34:39;5.80;99.90
4693;DHT22;11710;48.024;16.296;2022-12-05T17:37:07;5.80;99.90
4693;DHT22;11710;48.024;16.296;2022-12-05T17:39:36;5.80;99.90
4693;DHT22;11710;48.024;16.296;2022-12-05T17:42:05;5.70;99.90
4693;DHT22;11710;48.024;16.296;2022-12-05T17:44:34;5.70;99.90
4693;DHT22;11710;48.024;16.296;2022-12-05T17:47:03;5.60;99.90
4693;DHT22;11710;48.024;16.296;2022-12-05T17:49:31;5.60;99.90
4693;DHT22;11710;48.024;16.296;2022-12-05T17:52:00;5.70;99.90
4693;DHT22;11710;48.024;16.296;2022-12-05T17:54:28;5.70;99.90
4693;DHT22;11710;48.024;16.296;2022-12-05T17:56:57;5.70;99.90
4693;DHT22;11710;48.024;16.296;2022-12-05T17:59:27;5.80;99.90
4693;DHT22;11710;48.024;16.296;2022-12-05T18:01:55;5.80;99.90
4693;DHT22;11710;48.024;16.296;2022-12-05T18:04:25;5.90;99.90
4693;DHT22;11710;48.024;16.296;2022-12-05T18:06:54;5.90;99.90
4693;DHT22;11710;48.024;16.296;2022-12-05T18:09:24;6.00;99.90
4693;DHT22;11710;48.024;16.296;2022-12-05T18:11:53;6.00;99.90
4693;DHT22;11710;48.024;16.296;2022-12-05T18:14:21;6.00;99.90
4693;DHT22;11710;48.024;16.296;2022-12-05T18:16:50;6.00;99.90
4693;DHT22;11710;48.024;16.296;2022-12-05T18:19:19;6.00;99.90
4693;DHT22;11710;48.024;16.296;2022-12-05T18:21:48;6.00;99.90
4693;DHT22;11710;48.024;16.296;2022-12-05T18:24:15;5.90;99.90
4693;DHT22;11710;48.024;16.296;2022-12-05T18:26:46;5.90;99.90
4693;DHT22;11710;48.024;16.296;2022-12-05T18:29:15;5.90;99.90
4693;DHT22;11710;48.024;16.296;2022-12-05T18:31:44;5.80;99.90
4693;DHT22;11710;48.024;16.296;2022-12-05T18:34:13;5.80;99.90
4693;DHT22;11710;48.024;16.296;2022-12-05T18:36:41;5.80;99.90
4693;DHT22;11710;48.024;16.296;2022-12-05T18:39:11;5.70;99.90
4693;DHT22;11710;48.024;16.296;2022-12-05T18:41:40;5.70;99.90
4693;DHT22;11710;48.024;16.296;2022-12-05T18:44:10;5.70;99.90
4693;DHT22;11710;48.024;16.296;2022-12-05T18:46:39;5.70;99.90
4693;DHT22;11710;48.024;16.296;2022-12-05T18:49:07;5.70;99.90
4693;DHT22;11710;48.024;16.296;2022-12-05T18:51:37;5.70;99.90
4693;DHT22;11710;48.024;16.296;2022-12-05T18:54:06;5.80;99.90
4693;DHT22;11710;48.024;16.296;2022-12-05T18:56:36;5.80;99.90
4693;DHT22;11710;48.024;16.296;2022-12-05T18:59:11;5.90;99.90
4693;DHT22;11710;48.024;16.296;2022-12-05T19:01:40;5.90;99.90
4693;DHT22;11710;48.024;16.296;2022-12-05T19:04:13;5.90;99.90
4693;DHT22;11710;48.024;16.296;2022-12-05T19:06:47;5.90;99.90
4693;DHT22;11710;48.024;16.296;2022-12-05T19:09:17;5.90;99.90
4693;DHT22;11710;48.024;16.296;2022-12-05T19:11:50;5.90;99.90
4693;DHT22;11710;48.024;16.296;2022-12-05T19:14:21;5.80;99.90
4693;DHT22;11710;48.024;16.296;2022-12-05T19:16:53;5.80;99.90
4693;DHT22;11710;48.024;16.296;2022-12-05T19:19:23;5.70;99.90
4693;DHT22;11710;48.024;16.296;2022-12-05T19:21:53;5.70;99.90
4693;DHT22;11710;48.024;16.296;2022-12-05T19:24:22;5.70;99.90
4693;DHT22;11710;48.024;16.296;2022-12-05T19:26:52;5.70;99.90
4693;DHT22;11710;48.024;16.296;2022-12-05T19:29:22;5.60;99.90
4693;DHT22;11710;48.024;16.296;2022-12-05T19:31:49;5.60;99.90
4693;DHT22;11710;48.024;16.296;2022-12-05T19:34:19;5.60;99.90
4693;DHT22;11710;48.024;16.296;2022-12-05T19:36:47;5.70;99.90
4693;DHT22;11710;48.024;16.296;2022-12-05T19:39:18;5.70;99.90
4693;DHT22;11710;48.024;16.296;2022-12-05T19:41:46;5.70;99.90
4693;DHT22;11710;48.024;16.296;2022-12-05T19:44:16;5.60;99.90
4693;DHT22;11710;48.024;16.296;2022-12-05T19:46:47;5.70;99.90
4693;DHT22;11710;48.024;16.296;2022-12-05T19:49:17;5.70;99.90
4693;DHT22;11710;48.024;16.296;2022-12-05T19:51:50;5.70;99.90
4693;DHT22;11710;48.024;16.296;2022-12-05T19:54:27;5.70;99.90
4693;DHT22;11710;48.024;16.296;2022-12-05T19:56:56;5.80;99.90
4693;DHT22;11710;48.024;16.296;2022-12-05T19:59:27;5.80;99.90
4693;DHT22;11710;48.024;16.296;2022-12-05T20:02:00;5.80;99.90
4693;DHT22;11710;48.024;16.296;2022-12-05T20:04:27;5.80;99.90
4693;DHT22;11710;48.024;16.296;2022-12-05T20:06:55;5.80;99.90
4693;DHT22;11710;48.024;16.296;2022-12-05T20:09:23;5.80;99.90
4693;DHT22;11710;48.024;16.296;2022-12-05T20:11:52;5.70;99.90
4693;DHT22;11710;48.024;16.296;2022-12-05T20:14:19;5.60;99.90
4693;DHT22;11710;48.024;16.296;2022-12-05T20:16:47;5.60;99.90
4693;DHT22;11710;48.024;16.296;2022-12-05T20:19:17;5.50;99.90
4693;DHT22;11710;48.024;16.296;2022-12-05T20:21:44;5.50;99.90
4693;DHT22;11710;48.024;16.296;2022-12-05T20:24:14;5.50;99.90
